createdAt,value
2019-06-26T00:00:30.741Z,99.99
2019-06-26T00:01:30.791Z,99.99
2019-06-26T00:02:30.848Z,99.99
2019-06-26T00:03:30.914Z,99.99
2019-06-26T00:04:30.952Z,99.99
2019-06-26T00:05:31.004Z,99.99
2019-06-26T00:06:31.051Z,99.99
2019-06-26T00:07:31.106Z,99.99
2019-06-26T00:08:31.213Z,99.99
2019-06-26T00:09:31.204Z,99.99
2019-06-26T00:10:31.258Z,99.99
2019-06-26T00:11:31.308Z,99.99
2019-06-26T00:12:31.362Z,99.99
2019-06-26T00:13:31.926Z,99.99
2019-06-26T00:14:31.496Z,99.99
2019-06-26T00:15:31.516Z,99.99
2019-06-26T00:16:31.571Z,99.99
2019-06-26T00:17:31.622Z,99.99
2019-06-26T00:18:31.682Z,99.99
2019-06-26T00:19:31.751Z,99.99
2019-06-26T00:20:31.777Z,99.99
2019-06-26T00:21:31.834Z,99.99
2019-06-26T00:22:31.879Z,99.99
2019-06-26T00:23:31.930Z,99.99
2019-06-26T00:24:32.002Z,99.99
2019-06-26T00:25:32.040Z,99.99
2019-06-26T00:26:32.088Z,99.99
2019-06-26T00:27:32.139Z,99.99
2019-06-26T00:28:32.189Z,0.00
2019-06-26T00:29:32.262Z,0.00
2019-06-26T00:30:32.296Z,0.00
2019-06-26T00:31:32.345Z,0.00
2019-06-26T00:32:32.404Z,0.00
2019-06-26T00:33:32.449Z,0.00
2019-06-26T00:34:32.523Z,0.00
2019-06-26T00:35:32.555Z,0.00
2019-06-26T00:36:32.603Z,0.00
2019-06-26T00:37:32.655Z,0.00
2019-06-26T00:38:32.719Z,0.00
2019-06-26T00:39:32.781Z,0.00
2019-06-26T00:40:32.849Z,0.00
2019-06-26T00:41:32.867Z,0.00
2019-06-26T00:42:32.914Z,0.00
2019-06-26T00:43:41.921Z,0.00
2019-06-26T00:44:33.038Z,0.00
2019-06-26T00:45:33.072Z,0.00
2019-06-26T00:46:33.145Z,0.00
2019-06-26T00:47:33.175Z,0.00
2019-06-26T00:48:33.227Z,0.00
2019-06-26T00:49:33.310Z,0.00
2019-06-26T00:50:33.337Z,0.00
2019-06-26T00:51:33.383Z,0.00
2019-06-26T00:52:33.433Z,0.00
2019-06-26T00:53:33.487Z,0.00
2019-06-26T00:54:33.578Z,0.00
2019-06-26T00:55:33.587Z,0.00
2019-06-26T00:56:33.640Z,0.00
2019-06-26T00:57:33.689Z,0.00
2019-06-26T00:58:33.770Z,0.00
2019-06-26T00:59:33.836Z,0.00
2019-06-26T01:00:33.854Z,0.00
2019-06-26T01:01:33.901Z,0.00
2019-06-26T01:02:33.950Z,0.00
2019-06-26T01:03:34.001Z,0.00
2019-06-26T01:04:34.070Z,0.00
2019-06-26T01:05:34.126Z,0.00
2019-06-26T01:06:34.157Z,0.00
2019-06-26T01:07:34.206Z,0.00
2019-06-26T01:08:34.262Z,0.00
2019-06-26T01:09:34.312Z,0.00
2019-06-26T01:10:34.398Z,0.00
2019-06-26T01:11:34.426Z,0.00
2019-06-26T01:12:34.471Z,0.00
2019-06-26T01:13:34.602Z,0.00
2019-06-26T01:14:34.592Z,0.00
2019-06-26T01:15:34.659Z,0.00
2019-06-26T01:16:35.419Z,0.00
2019-06-26T01:17:34.724Z,0.00
2019-06-26T01:18:34.775Z,0.00
2019-06-26T01:19:34.826Z,0.00
2019-06-26T01:20:34.968Z,0.00
2019-06-26T01:21:34.930Z,0.00
2019-06-26T01:22:34.983Z,0.00
2019-06-26T01:23:35.036Z,0.00
2019-06-26T01:24:35.097Z,0.00
2019-06-26T01:25:35.158Z,0.00
2019-06-26T01:26:35.191Z,0.00
2019-06-26T01:27:35.244Z,0.00
2019-06-26T01:28:35.296Z,0.00
2019-06-26T01:29:35.343Z,0.00
2019-06-26T01:30:35.454Z,0.00
2019-06-26T01:31:35.450Z,0.00
2019-06-26T01:32:35.497Z,0.00
2019-06-26T01:33:35.563Z,0.00
2019-06-26T01:34:35.601Z,0.00
2019-06-26T01:35:35.675Z,0.00
2019-06-26T01:36:35.725Z,0.00
2019-06-26T01:37:35.758Z,0.00
2019-06-26T01:38:35.809Z,0.00
2019-06-26T01:39:35.860Z,0.00
2019-06-26T01:40:35.953Z,0.00
2019-06-26T01:41:35.964Z,0.00
2019-06-26T01:42:36.013Z,0.00
2019-06-26T01:43:36.070Z,0.00
2019-06-26T01:44:36.117Z,0.00
2019-06-26T01:45:36.196Z,0.00
2019-06-26T01:46:36.222Z,0.00
2019-06-26T01:47:36.272Z,0.00
2019-06-26T01:48:36.320Z,0.00
2019-06-26T01:49:36.379Z,0.00
2019-06-26T01:50:36.455Z,0.00
2019-06-26T01:51:36.497Z,0.00
2019-06-26T01:52:36.528Z,0.00
2019-06-26T01:53:36.582Z,0.00
2019-06-26T01:54:36.632Z,0.00
2019-06-26T01:55:36.685Z,0.00
2019-06-26T01:56:36.755Z,0.00
2019-06-26T01:57:36.790Z,0.00
2019-06-26T01:58:36.839Z,0.00
2019-06-26T01:59:36.889Z,0.00
2019-06-26T02:00:36.940Z,0.00
2019-06-26T02:01:37.018Z,0.00
2019-06-26T02:02:37.042Z,0.00
2019-06-26T02:03:37.094Z,0.00
2019-06-26T02:04:37.154Z,0.00
2019-06-26T02:05:37.204Z,0.00
2019-06-26T02:06:37.270Z,0.00
2019-06-26T02:07:37.312Z,0.00
2019-06-26T02:08:37.352Z,0.00
2019-06-26T02:09:37.420Z,0.00
2019-06-26T02:10:37.455Z,0.00
2019-06-26T02:11:37.548Z,0.00
2019-06-26T02:12:37.554Z,0.00
2019-06-26T02:13:37.610Z,0.00
2019-06-26T02:14:37.662Z,0.00
2019-06-26T02:15:37.710Z,0.00
2019-06-26T02:16:37.782Z,0.00
2019-06-26T02:17:37.814Z,0.00
2019-06-26T02:18:37.871Z,0.00
2019-06-26T02:19:37.919Z,0.00
2019-06-26T02:20:37.981Z,0.00
2019-06-26T02:21:38.046Z,0.00
2019-06-26T02:22:38.076Z,0.00
2019-06-26T02:23:38.123Z,0.00
2019-06-26T02:24:38.172Z,0.00
2019-06-26T02:25:38.237Z,0.00
2019-06-26T02:26:38.296Z,0.00
2019-06-26T02:27:38.327Z,0.00
2019-06-26T02:28:38.380Z,0.00
2019-06-26T02:29:38.441Z,0.00
2019-06-26T02:30:38.485Z,0.00
2019-06-26T02:31:38.556Z,0.00
2019-06-26T02:32:38.585Z,0.00
2019-06-26T02:33:38.638Z,0.00
2019-06-26T02:34:38.700Z,0.00
2019-06-26T02:35:38.739Z,0.00
2019-06-26T02:36:38.824Z,0.00
2019-06-26T02:37:38.842Z,0.00
2019-06-26T02:38:38.910Z,0.00
2019-06-26T02:39:38.947Z,0.00
2019-06-26T02:40:38.995Z,0.00
2019-06-26T02:41:39.069Z,0.00
2019-06-26T02:42:39.121Z,0.00
2019-06-26T02:43:39.149Z,0.00
2019-06-26T02:44:52.434Z,0.00
2019-06-26T02:45:39.253Z,0.00
2019-06-26T02:46:39.343Z,0.00
2019-06-26T02:47:39.378Z,0.00
2019-06-26T02:48:39.495Z,0.00
2019-06-26T02:49:39.460Z,0.00
2019-06-26T02:50:39.507Z,0.00
2019-06-26T02:51:39.563Z,0.00
2019-06-26T02:52:39.646Z,0.00
2019-06-26T02:53:39.693Z,0.00
2019-06-26T02:54:39.714Z,0.00
2019-06-26T02:55:39.771Z,0.00
2019-06-26T02:56:41.646Z,0.00
2019-06-26T02:57:39.891Z,0.00
2019-06-26T02:58:39.922Z,99.99
2019-06-26T02:59:40.009Z,99.99
2019-06-26T03:00:40.023Z,99.99
2019-06-26T03:01:40.074Z,99.99
2019-06-26T03:02:40.147Z,99.99
2019-06-26T03:03:40.185Z,99.99
2019-06-26T03:04:40.239Z,99.99
2019-06-26T03:05:40.281Z,99.99
2019-06-26T03:06:40.334Z,99.99
2019-06-26T03:07:40.415Z,99.99
2019-06-26T03:08:40.453Z,99.99
2019-06-26T03:09:40.485Z,99.99
2019-06-26T03:10:40.540Z,99.99
2019-06-26T03:11:40.590Z,99.99
2019-06-26T03:12:40.639Z,0.00
2019-06-26T03:13:40.713Z,0.00
2019-06-26T03:14:40.757Z,0.00
2019-06-26T03:15:40.792Z,0.00
2019-06-26T03:16:40.845Z,0.00
2019-06-26T03:17:54.283Z,0.00
2019-06-26T03:18:40.968Z,0.00
2019-06-26T03:19:41.004Z,0.00
2019-06-26T03:20:41.047Z,0.00
2019-06-26T03:21:41.099Z,0.00
2019-06-26T03:22:41.152Z,0.00
2019-06-26T03:23:41.236Z,0.00
2019-06-26T03:24:41.253Z,0.00
2019-06-26T03:25:41.308Z,0.00
2019-06-26T03:26:41.354Z,0.00
2019-06-26T03:27:41.405Z,0.00
2019-06-26T03:28:41.482Z,0.00
2019-06-26T03:29:41.513Z,0.00
2019-06-26T03:30:41.561Z,0.00
2019-06-26T03:31:41.612Z,0.00
2019-06-26T03:32:41.662Z,0.00
2019-06-26T03:33:41.735Z,0.00
2019-06-26T03:34:41.790Z,0.00
2019-06-26T03:35:41.817Z,0.00
2019-06-26T03:36:41.895Z,0.00
2019-06-26T03:37:41.921Z,0.00
2019-06-26T03:38:41.998Z,0.00
2019-06-26T03:39:42.037Z,0.00
2019-06-26T03:40:42.071Z,0.00
2019-06-26T03:41:42.136Z,0.00
2019-06-26T03:42:42.183Z,0.00
2019-06-26T03:43:42.251Z,0.00
2019-06-26T03:44:42.281Z,0.00
2019-06-26T03:45:42.349Z,0.00
2019-06-26T03:46:42.383Z,0.00
2019-06-26T03:47:42.431Z,0.00
2019-06-26T03:48:42.486Z,0.00
2019-06-26T03:49:42.580Z,0.00
2019-06-26T03:50:42.599Z,0.00
2019-06-26T03:51:42.645Z,0.00
2019-06-26T03:52:42.689Z,0.00
2019-06-26T03:53:42.759Z,0.00
2019-06-26T03:54:42.809Z,0.00
2019-06-26T03:55:42.862Z,0.00
2019-06-26T03:56:42.893Z,0.00
2019-06-26T03:57:42.955Z,0.00
2019-06-26T03:58:42.994Z,0.00
2019-06-26T03:59:43.065Z,0.00
2019-06-26T04:00:43.120Z,0.00
2019-06-26T04:01:43.155Z,0.00
2019-06-26T04:02:43.200Z,0.00
2019-06-26T04:03:43.260Z,0.00
2019-06-26T04:04:43.347Z,0.00
2019-06-26T04:05:43.353Z,0.00
2019-06-26T04:06:43.403Z,0.00
2019-06-26T04:07:43.485Z,0.00
2019-06-26T04:08:43.507Z,0.00
2019-06-26T04:09:43.584Z,0.00
2019-06-26T04:10:43.777Z,0.00
2019-06-26T04:11:43.663Z,0.00
2019-06-26T04:12:43.710Z,0.00
2019-06-26T04:13:43.775Z,0.00
2019-06-26T04:14:43.836Z,0.00
2019-06-26T04:15:43.863Z,0.00
2019-06-26T04:16:43.919Z,0.00
2019-06-26T04:17:43.973Z,0.00
2019-06-26T04:18:44.023Z,0.00
2019-06-26T04:19:44.112Z,0.00
2019-06-26T04:20:44.120Z,0.00
2019-06-26T04:21:44.175Z,0.00
2019-06-26T04:22:47.437Z,0.00
2019-06-26T04:23:44.285Z,0.00
2019-06-26T04:24:44.346Z,0.00
2019-06-26T04:25:44.420Z,0.00
2019-06-26T04:26:44.428Z,0.00
2019-06-26T04:27:44.486Z,0.00
2019-06-26T04:28:44.535Z,0.00
2019-06-26T04:29:44.583Z,0.00
2019-06-26T04:30:44.653Z,0.00
2019-06-26T04:31:44.687Z,0.00
2019-06-26T04:32:44.739Z,0.00
2019-06-26T04:33:44.790Z,0.00
2019-06-26T04:34:44.846Z,0.00
2019-06-26T04:35:44.914Z,0.00
2019-06-26T04:36:44.945Z,0.00
2019-06-26T04:37:44.996Z,0.00
2019-06-26T04:38:45.048Z,0.00
2019-06-26T04:39:45.099Z,0.00
2019-06-26T04:40:45.183Z,0.00
2019-06-26T04:41:45.214Z,0.00
2019-06-26T04:42:45.252Z,0.00
2019-06-26T04:43:45.309Z,0.00
2019-06-26T04:44:45.359Z,0.00
2019-06-26T04:45:57.712Z,0.00
2019-06-26T04:46:45.463Z,0.00
2019-06-26T04:47:45.516Z,0.00
2019-06-26T04:48:45.575Z,0.00
2019-06-26T04:49:45.610Z,0.00
2019-06-26T04:50:45.692Z,0.00
2019-06-26T04:51:45.738Z,0.00
2019-06-26T04:52:45.788Z,0.00
2019-06-26T04:53:45.816Z,0.00
2019-06-26T04:54:45.884Z,0.00
2019-06-26T04:55:45.952Z,0.00
2019-06-26T04:56:45.991Z,0.00
2019-06-26T04:57:46.024Z,0.00
2019-06-26T04:58:46.084Z,0.00
2019-06-26T04:59:46.127Z,0.00
2019-06-26T05:00:46.179Z,0.00
2019-06-26T05:01:46.251Z,0.00
2019-06-26T05:02:46.287Z,0.00
2019-06-26T05:03:46.333Z,0.00
2019-06-26T05:04:46.387Z,0.00
2019-06-26T05:05:46.441Z,0.00
2019-06-26T05:06:46.510Z,0.00
2019-06-26T05:07:46.537Z,0.00
2019-06-26T05:08:46.594Z,0.00
2019-06-26T05:09:46.642Z,0.00
2019-06-26T05:10:46.694Z,0.00
2019-06-26T05:11:46.769Z,0.00
2019-06-26T05:12:46.798Z,0.00
2019-06-26T05:13:46.855Z,0.00
2019-06-26T05:14:46.919Z,0.00
2019-06-26T05:15:46.964Z,0.00
2019-06-26T05:16:47.030Z,0.00
2019-06-26T05:17:47.058Z,0.00
2019-06-26T05:18:47.109Z,0.00
2019-06-26T05:19:47.162Z,0.00
2019-06-26T05:20:47.213Z,0.00
2019-06-26T05:21:47.298Z,0.00
2019-06-26T05:22:47.348Z,0.00
2019-06-26T05:23:47.369Z,0.00
2019-06-26T05:24:47.422Z,0.00
2019-06-26T05:25:47.472Z,0.00
2019-06-26T05:26:47.527Z,0.00
2019-06-26T05:27:47.603Z,0.00
2019-06-26T05:28:47.630Z,0.00
2019-06-26T05:29:47.683Z,0.00
2019-06-26T05:30:47.737Z,0.00
2019-06-26T05:31:47.795Z,0.00
2019-06-26T05:32:47.866Z,0.00
2019-06-26T05:33:47.891Z,0.00
2019-06-26T05:34:47.944Z,0.00
2019-06-26T05:35:48.003Z,0.00
2019-06-26T05:36:48.067Z,0.00
2019-06-26T05:37:48.128Z,0.00
2019-06-26T05:38:48.158Z,0.00
2019-06-26T05:39:48.219Z,0.00
2019-06-26T05:40:48.270Z,0.00
2019-06-26T05:41:48.312Z,0.00
2019-06-26T05:42:48.404Z,0.00
2019-06-26T05:43:48.419Z,0.00
2019-06-26T05:44:48.486Z,0.00
2019-06-26T05:45:48.514Z,0.00
2019-06-26T05:46:48.568Z,0.00
2019-06-26T05:47:48.650Z,0.00
2019-06-26T05:48:48.704Z,0.00
2019-06-26T05:49:48.726Z,0.00
2019-06-26T05:50:48.788Z,0.00
2019-06-26T05:51:48.831Z,0.00
2019-06-26T05:52:48.902Z,0.00
2019-06-26T05:53:48.937Z,0.00
2019-06-26T05:54:49.017Z,0.00
2019-06-26T05:55:49.043Z,0.00
2019-06-26T05:56:49.093Z,0.00
2019-06-26T05:57:49.169Z,0.00
2019-06-26T05:58:49.248Z,0.00
2019-06-26T05:59:49.251Z,0.00
2019-06-26T06:00:49.305Z,0.00
2019-06-26T06:01:49.369Z,0.00
2019-06-26T06:02:49.439Z,0.00
2019-06-26T06:03:49.462Z,0.00
2019-06-26T06:04:49.516Z,0.00
2019-06-26T06:05:49.569Z,0.00
2019-06-26T06:06:49.628Z,0.00
2019-06-26T06:07:49.700Z,0.00
2019-06-26T06:08:49.748Z,0.00
2019-06-26T06:09:49.791Z,0.00
2019-06-26T06:10:49.834Z,0.00
2019-06-26T06:11:50.033Z,0.00
2019-06-26T06:12:49.942Z,0.00
2019-06-26T06:13:50.019Z,0.00
2019-06-26T06:14:50.051Z,0.00
2019-06-26T06:15:50.107Z,0.00
2019-06-26T06:16:50.151Z,0.00
2019-06-26T06:17:50.204Z,0.00
2019-06-26T06:18:50.279Z,0.00
2019-06-26T06:19:50.311Z,0.00
2019-06-26T06:20:50.365Z,0.00
2019-06-26T06:21:50.418Z,0.00
2019-06-26T06:22:50.467Z,0.00
2019-06-26T06:23:50.555Z,0.00
2019-06-26T06:24:50.581Z,0.00
2019-06-26T06:25:50.632Z,0.00
2019-06-26T06:26:50.683Z,0.00
2019-06-26T06:27:50.740Z,0.00
2019-06-26T06:28:50.822Z,0.00
2019-06-26T06:29:50.844Z,0.00
2019-06-26T06:30:50.904Z,0.00
2019-06-26T06:31:50.955Z,0.00
2019-06-26T06:32:51.013Z,0.00
2019-06-26T06:33:51.083Z,0.00
2019-06-26T06:34:51.110Z,0.00
2019-06-26T06:35:51.162Z,0.00
2019-06-26T06:36:51.231Z,0.00
2019-06-26T06:37:51.274Z,0.00
2019-06-26T06:38:51.543Z,0.00
2019-06-26T06:39:51.378Z,0.00
2019-06-26T06:40:51.433Z,0.00
2019-06-26T06:41:51.492Z,0.00
2019-06-26T06:42:51.547Z,0.00
2019-06-26T06:43:51.624Z,0.00
2019-06-26T06:44:51.655Z,0.00
2019-06-26T06:45:51.701Z,0.00
2019-06-26T06:47:03.458Z,0.00
2019-06-26T06:47:51.806Z,0.00
2019-06-26T06:48:51.889Z,0.00
2019-06-26T06:49:51.918Z,0.00
2019-06-26T06:50:51.968Z,0.00
2019-06-26T06:51:52.023Z,0.00
2019-06-26T06:52:52.080Z,0.00
2019-06-26T06:53:52.165Z,0.00
2019-06-26T06:54:52.212Z,0.00
2019-06-26T06:55:52.247Z,0.00
2019-06-26T06:56:52.294Z,0.00
2019-06-26T06:57:52.353Z,0.00
2019-06-26T06:58:52.416Z,0.00
2019-06-26T06:59:52.493Z,0.00
2019-06-26T07:00:52.513Z,0.00
2019-06-26T07:01:52.581Z,0.00
2019-06-26T07:02:52.634Z,0.00
2019-06-26T07:03:52.679Z,0.00
2019-06-26T07:04:52.752Z,0.00
2019-06-26T07:05:52.788Z,0.00
2019-06-26T07:06:52.889Z,0.00
2019-06-26T07:07:52.896Z,0.00
2019-06-26T07:08:52.975Z,0.00
2019-06-26T07:09:53.024Z,0.00
2019-06-26T07:10:53.066Z,0.00
2019-06-26T07:11:53.117Z,0.00
2019-06-26T07:12:53.174Z,0.00
2019-06-26T07:13:53.228Z,0.00
2019-06-26T07:14:53.318Z,0.00
2019-06-26T07:15:53.337Z,0.00
2019-06-26T07:16:53.407Z,0.00
2019-06-26T07:17:53.456Z,0.00
2019-06-26T07:18:53.505Z,0.00
2019-06-26T07:19:53.589Z,0.00
2019-06-26T07:20:53.638Z,0.00
2019-06-26T07:21:53.674Z,0.00
2019-06-26T07:22:53.740Z,0.00
2019-06-26T07:23:53.788Z,0.00
2019-06-26T07:24:53.878Z,0.00
2019-06-26T07:25:53.895Z,0.00
2019-06-26T07:26:53.951Z,0.00
2019-06-26T07:27:54.017Z,0.00
2019-06-26T07:28:54.065Z,0.00
2019-06-26T07:29:54.182Z,0.00
2019-06-26T07:30:54.200Z,0.00
2019-06-26T07:31:54.238Z,0.00
2019-06-26T07:32:54.292Z,0.00
2019-06-26T07:33:55.744Z,0.00
2019-06-26T07:34:54.399Z,0.00
2019-06-26T07:35:54.485Z,0.00
2019-06-26T07:36:54.509Z,0.00
2019-06-26T07:37:54.566Z,0.00
2019-06-26T07:38:54.635Z,0.00
2019-06-26T07:40:00.333Z,0.00
2019-06-26T07:40:54.753Z,0.00
2019-06-26T07:41:54.792Z,0.00
2019-06-26T07:42:54.850Z,0.00
2019-06-26T07:43:54.911Z,0.00
2019-06-26T07:44:54.966Z,0.00
2019-06-26T07:45:55.031Z,0.00
2019-06-26T07:46:55.070Z,0.00
2019-06-26T07:47:55.131Z,0.00
2019-06-26T07:48:57.471Z,0.00
2019-06-26T07:49:55.237Z,0.00
2019-06-26T07:50:55.312Z,0.00
2019-06-26T07:51:55.394Z,0.00
2019-06-26T07:52:55.413Z,0.00
2019-06-26T07:53:55.465Z,0.00
2019-06-26T07:54:55.535Z,0.00
2019-06-26T07:55:55.589Z,0.00
2019-06-26T07:56:55.627Z,0.00
2019-06-26T07:57:55.700Z,0.00
2019-06-26T07:58:55.740Z,0.00
2019-06-26T07:59:55.795Z,0.00
2019-06-26T08:00:55.889Z,0.00
2019-06-26T08:01:55.909Z,0.00
2019-06-26T08:02:55.983Z,0.00
2019-06-26T08:03:56.023Z,0.00
2019-06-26T08:04:56.104Z,0.00
2019-06-26T08:05:56.169Z,0.00
2019-06-26T08:06:56.210Z,0.00
2019-06-26T08:07:56.352Z,0.00
2019-06-26T08:08:56.353Z,0.00
2019-06-26T08:09:56.399Z,0.00
2019-06-26T08:10:56.416Z,0.00
2019-06-26T08:11:56.489Z,0.00
2019-06-26T08:12:56.529Z,0.00
2019-06-26T08:13:56.738Z,0.00
2019-06-26T08:14:56.640Z,0.00
2019-06-26T08:15:56.706Z,0.00
2019-06-26T08:16:56.775Z,0.00
2019-06-26T08:18:01.067Z,0.00
2019-06-26T08:18:56.868Z,0.00
2019-06-26T08:19:56.921Z,0.00
2019-06-26T08:21:11.668Z,0.00
2019-06-26T08:21:57.055Z,0.00
2019-06-26T08:22:57.088Z,0.00
2019-06-26T08:23:57.146Z,0.00
2019-06-26T08:24:57.206Z,0.00
2019-06-26T08:25:57.285Z,0.00
2019-06-26T08:26:57.336Z,0.00
2019-06-26T08:27:57.370Z,0.00
2019-06-26T08:28:57.426Z,0.00
2019-06-26T08:29:57.485Z,0.00
2019-06-26T08:30:57.548Z,0.00
2019-06-26T08:31:57.632Z,0.00
2019-06-26T08:32:57.682Z,0.00
2019-06-26T08:33:57.707Z,0.00
2019-06-26T08:34:57.791Z,0.00
2019-06-26T08:35:57.820Z,0.00
2019-06-26T08:36:57.905Z,0.00
2019-06-26T08:38:09.934Z,0.00
2019-06-26T08:38:57.992Z,0.00
2019-06-26T08:39:58.048Z,0.00
2019-06-26T08:40:58.106Z,0.00
2019-06-26T08:41:58.199Z,0.00
2019-06-26T08:42:58.247Z,0.00
2019-06-26T08:43:58.274Z,0.00
2019-06-26T08:44:58.330Z,0.00
2019-06-26T08:45:58.388Z,0.00
2019-06-26T08:46:58.476Z,0.00
2019-06-26T08:47:58.539Z,0.00
2019-06-26T08:48:58.559Z,0.00
2019-06-26T08:49:58.618Z,0.00
2019-06-26T08:50:58.676Z,0.00
2019-06-26T08:51:58.729Z,0.00
2019-06-26T08:52:58.822Z,0.00
2019-06-26T08:53:58.909Z,0.00
2019-06-26T08:54:58.904Z,0.00
2019-06-26T08:55:58.968Z,0.00
2019-06-26T08:56:59.028Z,0.00
2019-06-26T08:57:59.100Z,0.00
2019-06-26T08:58:59.135Z,0.00
2019-06-26T08:59:59.197Z,0.00
2019-06-26T09:00:59.247Z,0.00
2019-06-26T09:01:59.305Z,0.00
2019-06-26T09:02:59.381Z,0.00
2019-06-26T09:03:59.440Z,0.00
2019-06-26T09:04:59.485Z,0.00
2019-06-26T09:05:59.543Z,0.00
2019-06-26T09:06:59.610Z,0.00
2019-06-26T09:07:59.752Z,0.00
2019-06-26T09:08:59.708Z,0.00
2019-06-26T09:09:59.763Z,0.00
2019-06-26T09:10:59.823Z,0.00
2019-06-26T09:11:59.876Z,0.00
2019-06-26T09:12:59.980Z,0.00
2019-06-26T09:14:00.016Z,0.00
2019-06-26T09:15:00.072Z,0.00
2019-06-26T09:16:00.123Z,0.00
2019-06-26T09:17:00.164Z,0.00
2019-06-26T09:18:00.224Z,0.00
2019-06-26T09:19:00.324Z,0.00
2019-06-26T09:20:00.335Z,0.00
2019-06-26T09:21:00.393Z,0.00
2019-06-26T09:22:00.461Z,0.00
2019-06-26T09:23:00.561Z,0.00
2019-06-26T09:24:00.563Z,0.00
2019-06-26T09:25:00.628Z,0.00
2019-06-26T09:26:00.693Z,0.00
2019-06-26T09:27:00.747Z,0.00
2019-06-26T09:28:00.818Z,0.00
2019-06-26T09:29:00.879Z,0.00
2019-06-26T09:30:00.924Z,0.00
2019-06-26T09:31:00.971Z,0.00
2019-06-26T09:32:01.029Z,0.00
2019-06-26T09:33:01.088Z,0.00
2019-06-26T09:34:01.165Z,0.00
2019-06-26T09:35:01.218Z,0.00
2019-06-26T09:36:01.259Z,0.00
2019-06-26T09:37:01.317Z,0.00
2019-06-26T09:38:01.382Z,0.00
2019-06-26T09:39:01.477Z,0.00
2019-06-26T09:40:01.516Z,0.00
2019-06-26T09:41:01.559Z,0.00
2019-06-26T09:42:01.602Z,0.00
2019-06-26T09:43:01.663Z,0.00
2019-06-26T09:44:01.751Z,0.00
2019-06-26T09:45:02.040Z,0.00
2019-06-26T09:46:01.836Z,0.00
2019-06-26T09:47:01.892Z,0.00
2019-06-26T09:48:01.950Z,0.00
2019-06-26T09:49:02.029Z,0.00
2019-06-26T09:50:02.147Z,0.00
2019-06-26T09:51:02.122Z,0.00
2019-06-26T09:52:02.184Z,0.00
2019-06-26T09:53:05.205Z,0.00
2019-06-26T09:54:02.318Z,0.00
2019-06-26T09:55:02.358Z,0.00
2019-06-26T09:56:02.409Z,78.79
2019-06-26T09:57:02.465Z,79.71
2019-06-26T09:58:02.525Z,76.42
2019-06-26T09:59:02.611Z,79.69
2019-06-26T10:00:02.648Z,80.64
2019-06-26T10:01:02.707Z,77.94
2019-06-26T10:02:02.761Z,77.00
2019-06-26T10:03:02.814Z,75.44
2019-06-26T10:04:02.981Z,79.49
2019-06-26T10:05:02.990Z,74.68
2019-06-26T10:06:02.993Z,76.34
2019-06-26T10:07:03.054Z,76.50
2019-06-26T10:08:03.142Z,76.66
2019-06-26T10:09:03.163Z,80.18
2019-06-26T10:10:03.268Z,76.58
2019-06-26T10:11:03.282Z,78.57
2019-06-26T10:12:03.351Z,79.64
2019-06-26T10:13:03.408Z,79.79
2019-06-26T10:14:03.459Z,80.25
2019-06-26T10:15:03.533Z,75.95
2019-06-26T10:16:03.572Z,77.19
2019-06-26T10:17:03.632Z,77.01
2019-06-26T10:18:03.689Z,77.79
2019-06-26T10:19:10.296Z,79.25
2019-06-26T10:20:03.898Z,79.02
2019-06-26T10:21:03.873Z,80.49
2019-06-26T10:22:03.928Z,79.02
2019-06-26T10:23:03.983Z,79.96
2019-06-26T10:24:04.045Z,80.83
2019-06-26T10:25:04.116Z,80.74
2019-06-26T10:26:04.181Z,79.61
2019-06-26T10:27:04.215Z,79.96
2019-06-26T10:28:04.275Z,80.25
2019-06-26T10:29:04.382Z,81.46
2019-06-26T10:30:04.437Z,80.54
2019-06-26T10:31:04.466Z,81.03
2019-06-26T10:32:04.544Z,80.88
2019-06-26T10:33:04.564Z,81.07
2019-06-26T10:34:04.625Z,80.10
2019-06-26T10:35:04.724Z,78.83
2019-06-26T10:36:04.788Z,79.51
2019-06-26T10:37:04.800Z,82.09
2019-06-26T10:38:04.877Z,77.77
2019-06-26T10:39:04.913Z,80.88
2019-06-26T10:40:04.971Z,75.04
2019-06-26T10:41:05.215Z,74.58
2019-06-26T10:42:05.090Z,77.67
2019-06-26T10:43:05.202Z,78.22
2019-06-26T10:44:05.221Z,79.53
2019-06-26T10:45:05.278Z,79.27
2019-06-26T10:46:05.358Z,77.81
2019-06-26T10:47:05.387Z,77.87
2019-06-26T10:48:05.514Z,79.53
2019-06-26T10:49:05.503Z,79.55
2019-06-26T10:50:05.565Z,79.06
2019-06-26T10:51:05.659Z,83.24
2019-06-26T10:52:05.689Z,76.70
2019-06-26T10:53:05.734Z,79.57
2019-06-26T10:54:05.808Z,77.09
2019-06-26T10:55:05.853Z,80.21
2019-06-26T10:56:05.947Z,79.47
2019-06-26T10:57:05.973Z,78.55
2019-06-26T10:58:06.026Z,76.17
2019-06-26T10:59:06.086Z,78.94
2019-06-26T11:00:06.160Z,77.77
2019-06-26T11:01:06.221Z,77.03
2019-06-26T11:02:06.281Z,76.89
2019-06-26T11:03:06.335Z,77.83
2019-06-26T11:04:06.385Z,78.03
2019-06-26T11:05:06.448Z,78.22
2019-06-26T11:06:06.523Z,77.64
2019-06-26T11:07:06.586Z,77.64
2019-06-26T11:08:06.616Z,77.25
2019-06-26T11:09:06.673Z,76.86
2019-06-26T11:10:06.740Z,77.54
2019-06-26T11:11:06.828Z,77.54
2019-06-26T11:12:06.872Z,77.67
2019-06-26T11:13:06.913Z,77.32
2019-06-26T11:14:06.974Z,77.51
2019-06-26T11:15:07.027Z,75.79
2019-06-26T11:16:07.086Z,76.61
2019-06-26T11:17:07.298Z,76.03
2019-06-26T11:18:07.213Z,75.67
2019-06-26T11:19:07.261Z,77.17
2019-06-26T11:20:07.367Z,78.09
2019-06-26T11:21:07.382Z,76.56
2019-06-26T11:22:07.467Z,71.86
2019-06-26T11:23:07.497Z,72.94
2019-06-26T11:24:07.558Z,72.86
2019-06-26T11:25:07.612Z,74.49
2019-06-26T11:26:07.687Z,75.21
2019-06-26T11:27:07.756Z,76.77
2019-06-26T11:28:07.864Z,77.51
2019-06-26T11:29:07.866Z,78.43
2019-06-26T11:30:07.915Z,76.97
2019-06-26T11:31:08.040Z,77.59
2019-06-26T11:32:09.598Z,76.45
2019-06-26T11:33:08.113Z,74.88
2019-06-26T11:34:08.155Z,75.54
2019-06-26T11:35:08.209Z,76.84
2019-06-26T11:36:08.276Z,76.55
2019-06-26T11:37:08.335Z,76.90
2019-06-26T11:38:08.418Z,77.10
2019-06-26T11:39:08.451Z,76.97
2019-06-26T11:40:08.508Z,77.65
2019-06-26T11:41:08.575Z,77.45
2019-06-26T11:42:08.659Z,76.97
2019-06-26T11:43:08.728Z,76.90
2019-06-26T11:44:08.746Z,76.90
2019-06-26T11:45:08.808Z,75.54
2019-06-26T11:46:08.868Z,76.81
2019-06-26T11:47:08.941Z,76.28
2019-06-26T11:48:09.111Z,76.73
2019-06-26T11:49:09.052Z,77.42
2019-06-26T11:50:09.106Z,77.55
2019-06-26T11:51:09.203Z,77.49
2019-06-26T11:52:09.222Z,75.83
2019-06-26T11:53:09.305Z,75.63
2019-06-26T11:54:09.446Z,74.69
2019-06-26T11:55:09.412Z,75.15
2019-06-26T11:56:09.462Z,75.24
2019-06-26T11:57:09.527Z,76.51
2019-06-26T11:58:09.605Z,76.61
2019-06-26T11:59:09.650Z,75.93
2019-06-26T12:00:09.710Z,75.38
2019-06-26T12:01:09.768Z,75.28
2019-06-26T12:02:09.822Z,74.79
2019-06-26T12:03:13.113Z,76.51
2019-06-26T12:04:09.939Z,76.81
2019-06-26T12:05:09.997Z,77.10
2019-06-26T12:06:18.148Z,77.06
2019-06-26T12:07:10.133Z,77.61
2019-06-26T12:08:10.207Z,77.61
2019-06-26T12:09:10.239Z,77.36
2019-06-26T12:10:10.332Z,76.38
2019-06-26T12:11:10.365Z,77.55
2019-06-26T12:12:10.424Z,75.99
2019-06-26T12:13:10.532Z,75.93
2019-06-26T12:14:10.552Z,75.57
2019-06-26T12:15:10.603Z,75.63
2019-06-26T12:16:10.667Z,75.18
2019-06-26T12:17:10.767Z,75.32
2019-06-26T12:18:10.796Z,73.94
2019-06-26T12:19:10.843Z,74.37
2019-06-26T12:20:18.492Z,74.02
2019-06-26T12:21:10.970Z,72.45
2019-06-26T12:22:11.019Z,72.31
2019-06-26T12:23:11.102Z,74.27
2019-06-26T12:24:11.194Z,73.75
2019-06-26T12:25:11.206Z,73.94
2019-06-26T12:26:11.263Z,75.22
2019-06-26T12:27:11.323Z,74.79
2019-06-26T12:28:11.394Z,74.69
2019-06-26T12:29:11.469Z,75.61
2019-06-26T12:30:11.515Z,74.24
2019-06-26T12:31:11.571Z,75.48
2019-06-26T12:32:11.635Z,76.61
2019-06-26T12:33:11.693Z,76.81
2019-06-26T12:34:11.784Z,75.77
2019-06-26T12:35:11.817Z,75.42
2019-06-26T12:36:11.893Z,75.22
2019-06-26T12:37:11.975Z,75.12
2019-06-26T12:38:11.994Z,75.87
2019-06-26T12:39:12.075Z,76.29
2019-06-26T12:40:12.127Z,75.08
2019-06-26T12:41:12.176Z,74.98
2019-06-26T12:42:12.245Z,74.79
2019-06-26T12:43:12.298Z,74.43
2019-06-26T12:44:12.394Z,71.89
2019-06-26T12:45:12.421Z,74.86
2019-06-26T12:46:12.481Z,74.86
2019-06-26T12:47:12.561Z,74.18
2019-06-26T12:48:15.982Z,73.82
2019-06-26T12:49:12.701Z,72.05
2019-06-26T12:50:12.734Z,73.72
2019-06-26T12:51:12.798Z,73.66
2019-06-26T12:52:16.059Z,72.19
2019-06-26T12:53:12.919Z,72.97
2019-06-26T12:54:12.999Z,73.17
2019-06-26T12:55:13.043Z,72.64
2019-06-26T12:56:13.111Z,75.74
2019-06-26T12:57:13.179Z,75.90
2019-06-26T12:58:19.193Z,75.22
2019-06-26T12:59:13.309Z,75.42
2019-06-26T13:00:13.365Z,76.39
2019-06-26T13:01:13.410Z,75.42
2019-06-26T13:02:13.475Z,75.77
2019-06-26T13:03:13.534Z,75.87
2019-06-26T13:04:13.623Z,74.43
2019-06-26T13:05:13.656Z,75.05
2019-06-26T13:06:13.725Z,76.04
2019-06-26T13:07:13.815Z,74.31
2019-06-26T13:08:13.853Z,73.56
2019-06-26T13:09:13.927Z,72.97
2019-06-26T13:10:13.990Z,73.89
2019-06-26T13:11:14.049Z,71.93